Time,TemperatureF,DewpointF,PressureIn,WindDirection,WindDirectionDegrees,WindSpeedMPH,WindSpeedGustMPH,Humidity,HourlyPrecipIn,Conditions,Clouds,dailyrainin,SoftwareType,DateUTC
2013-04-10 00:00:00,71.9,57.7,30.04,NNE,19,3.5,3.5,61,0.00,CLR,,0.00,WeatherDisplay:10.37,2013-04-10 04:00:00,
2013-04-10 00:05:00,71.8,58.1,30.04,ESE,112,3.5,3.5,62,0.00,CLR,,0.00,WeatherDisplay:10.37,2013-04-10 04:05:00,
2013-04-10 00:10:00,71.5,57.8,30.04,SSW,210,1.1,1.1,62,0.00,CLR,,0.00,WeatherDisplay:10.37,2013-04-10 04:10:00,
2013-04-10 00:15:00,71.4,57.7,30.04,SSE,160,2.3,2.3,62,0.00,CLR,,0.00,WeatherDisplay:10.37,2013-04-10 04:15:00,
2013-04-10 00:20:00,71.3,57.6,30.04,SSE,153,3.5,3.5,62,0.00,CLR,,0.00,WeatherDisplay:10.37,2013-04-10 04:20:00,
2013-04-10 00:21:00,71.2,57.5,30.04,SW,222,1.1,1.1,62,0.00,CLR,,0.00,WeatherDisplay:10.37,2013-04-10 04:21:00,
2013-04-10 00:26:00,71.1,57.9,30.04,SSW,212,1.1,1.1,63,0.00,CLR,,0.00,WeatherDisplay:10.37,2013-04-10 04:26:00,
2013-04-10 00:31:00,71.0,57.8,30.04,SSE,155,2.0,2.0,63,0.00,CLR,,0.00,WeatherDisplay:10.37,2013-04-10 04:31:00,
2013-04-10 00:36:00,70.9,57.7,30.04,SSE,147,1.1,1.1,63,0.00,CLR,,0.00,WeatherDisplay:10.37,2013-04-10 04:36:00,
2013-04-10 00:41:00,70.7,57.5,30.04,WSW,242,0.0,0.0,63,0.00,CLR,,0.00,WeatherDisplay:10.37,2013-04-10 04:41:00,
2013-04-10 00:46:00,70.6,57.8,30.03,SSE,155,2.3,2.3,64,0.00,CLR,,0.00,WeatherDisplay:10.37,2013-04-10 04:46:00,
2013-04-10 00:51:00,70.4,57.6,30.03,SSE,155,0.0,0.0,64,0.00,CLR,,0.00,WeatherDisplay:10.37,2013-04-10 04:51:00,
2013-04-10 00:56:00,70.1,57.4,30.04,ESE,113,1.1,1.1,64,0.00,CLR,,0.00,WeatherDisplay:10.37,2013-04-10 04:56:00,
2013-04-10 01:01:00,69.8,57.5,30.03,West,269,0.0,0.0,65,0.00,CLR,,0.00,WeatherDisplay:10.37,2013-04-10 05:01:00,
2013-04-10 01:06:00,69.4,57.5,30.03,ESE,112,1.1,0.0,66,0.00,CLR,,0.00,WeatherDisplay:10.37,2013-04-10 05:06:00,
2013-04-10 01:11:00,69.2,57.4,30.03,SW,235,1.0,0.0,66,0.00,CLR,,0.00,WeatherDisplay:10.37,2013-04-10 05:11:00,
2013-04-10 01:16:00,68.9,57.5,30.03,SSE,151,0.0,0.0,67,0.00,CLR,,0.00,WeatherDisplay:10.37,2013-04-10 05:16:00,
2013-04-10 01:21:00,68.5,57.1,30.03,ESE,102,1.0,1.0,67,0.00,CLR,,0.00,WeatherDisplay:10.37,2013-04-10 05:21:00,
2013-04-10 01:26:00,68.2,57.2,30.03,East,86,1.1,0.0,68,0.00,CLR,,0.00,WeatherDisplay:10.37,2013-04-10 05:26:00,
2013-04-10 01:31:00,67.9,57.4,30.03,WSW,239,0.0,0.0,69,0.00,CLR,,0.00,WeatherDisplay:10.37,2013-04-10 05:31:00,
2013-04-10 01:36:00,67.7,57.2,30.03,SSE,161,1.1,0.0,69,0.00,CLR,,0.00,WeatherDisplay:10.37,2013-04-10 05:36:00,
2013-04-10 01:41:00,67.5,57.4,30.03,West,260,0.0,0.1,70,0.00,CLR,,0.00,WeatherDisplay:10.37,2013-04-10 05:41:00,
2013-04-10 01:46:00,67.3,57.6,30.03,ESE,104,1.1,0.0,71,0.00,CLR,,0.00,WeatherDisplay:10.37,2013-04-10 05:46:00,
2013-04-10 01:51:00,67.1,57.4,30.02,WSW,252,1.1,1.1,71,0.00,CLR,,0.00,WeatherDisplay:10.37,2013-04-10 05:51:00,
2013-04-10 01:56:00,67.0,57.7,30.02,SSE,161,2.3,2.3,72,0.00,CLR,,0.00,WeatherDisplay:10.37,2013-04-10 05:56:00,
2013-04-10 02:01:00,67.1,57.8,30.02,SW,219,2.0,2.0,72,0.00,CLR,,0.00,WeatherDisplay:10.37,2013-04-10 06:01:00,
2013-04-10 02:06:00,67.2,57.9,30.02,ESE,117,6.0,6.0,72,0.00,CLR,,0.00,WeatherDisplay:10.37,2013-04-10 06:06:00,
2013-04-10 02:11:00,67.3,58.0,30.02,WSW,247,1.1,1.1,72,0.00,CLR,,0.00,WeatherDisplay:10.37,2013-04-10 06:11:00,
2013-04-10 02:16:00,67.2,57.9,30.02,SW,235,1.1,1.1,72,0.00,CLR,,0.00,WeatherDisplay:10.37,2013-04-10 06:16:00,
2013-04-10 02:21:00,67.1,58.2,30.02,SW,228,1.1,1.1,73,0.00,CLR,,0.00,WeatherDisplay:10.37,2013-04-10 06:21:00,
2013-04-10 02:26:00,67.0,58.1,30.02,SE,124,1.1,1.1,73,0.00,CLR,,0.00,WeatherDisplay:10.37,2013-04-10 06:26:00,
2013-04-10 02:31:00,67.0,58.1,30.02,SSW,207,3.5,3.5,73,0.00,CLR,,0.00,WeatherDisplay:10.37,2013-04-10 06:31:00,
2013-04-10 02:36:00,66.9,58.3,30.02,WSW,242,3.5,3.5,74,0.00,CLR,,0.00,WeatherDisplay:10.37,2013-04-10 06:36:00,
2013-04-10 02:41:00,67.0,58.4,30.01,WSW,238,3.5,3.5,74,0.00,CLR,,0.00,WeatherDisplay:10.37,2013-04-10 06:41:00,
2013-04-10 02:46:00,67.1,58.5,30.02,SW,235,1.1,1.2,74,0.00,CLR,,0.00,WeatherDisplay:10.37,2013-04-10 06:46:00,
2013-04-10 02:51:00,67.0,58.4,30.02,NNE,27,2.3,0.0,74,0.00,CLR,,0.00,WeatherDisplay:10.37,2013-04-10 06:51:00,
2013-04-10 02:57:00,67.0,58.4,30.02,WSW,254,1.1,1.1,74,0.00,CLR,,0.00,WeatherDisplay:10.37,2013-04-10 06:57:00,
2013-04-10 03:02:00,66.9,58.3,30.02,ENE,60,3.5,3.5,74,0.00,CLR,,0.00,WeatherDisplay:10.37,2013-04-10 07:02:00,
2013-04-10 03:07:00,66.8,58.2,30.02,ESE,114,1.1,1.1,74,0.00,CLR,,0.00,WeatherDisplay:10.37,2013-04-10 07:07:00,
2013-04-10 03:12:00,66.8,58.2,30.02,WSW,257,1.1,1.1,74,0.00,CLR,,0.00,WeatherDisplay:10.37,2013-04-10 07:12:00,
2013-04-10 03:17:00,66.7,58.5,30.02,SE,129,3.5,3.5,75,0.00,CLR,,0.00,WeatherDisplay:10.37,2013-04-10 07:17:00,
2013-04-10 03:22:00,66.6,58.4,30.02,NNE,18,0.0,0.0,75,0.00,CLR,,0.00,WeatherDisplay:10.37,2013-04-10 07:22:00,
2013-04-10 03:27:00,66.5,58.3,30.02,NW,322,0.0,0.0,75,0.00,CLR,,0.00,WeatherDisplay:10.37,2013-04-10 07:27:00,
2013-04-10 03:32:00,66.4,58.6,30.02,East,86,2.3,2.3,76,0.00,CLR,,0.00,WeatherDisplay:10.37,2013-04-10 07:32:00,
2013-04-10 03:37:00,66.4,58.6,30.02,East,99,3.5,3.5,76,0.00,CLR,,0.00,WeatherDisplay:10.37,2013-04-10 07:37:00,
2013-04-10 03:42:00,66.4,58.6,30.02,SSW,205,2.3,2.3,76,0.00,CLR,,0.00,WeatherDisplay:10.37,2013-04-10 07:42:00,
2013-04-10 03:47:00,66.2,58.4,30.02,NNE,19,0.0,0.0,76,0.00,CLR,,0.00,WeatherDisplay:10.37,2013-04-10 07:47:00,
2013-04-10 03:52:00,66.0,58.6,30.02,SW,224,3.5,3.5,77,0.00,CLR,,0.00,WeatherDisplay:10.37,2013-04-10 07:52:00,
2013-04-10 03:57:00,65.9,58.5,30.02,ESE,102,1.1,1.1,77,0.00,CLR,,0.00,WeatherDisplay:10.37,2013-04-10 07:57:00,
2013-04-10 04:02:00,65.7,58.3,30.02,West,266,0.0,0.0,77,0.00,CLR,,0.00,WeatherDisplay:10.37,2013-04-10 08:02:00,
2013-04-10 04:07:00,65.7,58.7,30.02,SW,222,1.1,1.1,78,0.00,CLR,,0.00,WeatherDisplay:10.37,2013-04-10 08:07:00,
2013-04-10 04:12:00,65.6,58.6,30.03,SSE,158,0.0,0.0,78,0.00,CLR,,0.00,WeatherDisplay:10.37,2013-04-10 08:12:00,
2013-04-10 04:17:00,65.5,58.5,30.03,SE,128,0.0,0.0,78,0.00,CLR,,0.00,WeatherDisplay:10.37,2013-04-10 08:17:00,
2013-04-10 04:22:00,65.4,58.7,30.03,SE,124,2.3,2.3,79,0.00,CLR,,0.00,WeatherDisplay:10.37,2013-04-10 08:22:00,
2013-04-10 04:27:00,65.3,58.6,30.03,SSW,207,2.3,2.3,79,0.00,CLR,,0.00,WeatherDisplay:10.37,2013-04-10 08:27:00,
2013-04-10 04:32:00,65.2,58.5,30.03,SW,219,3.5,3.5,79,0.00,CLR,,0.00,WeatherDisplay:10.37,2013-04-10 08:32:00,
2013-04-10 04:37:00,65.2,58.9,30.03,SSW,198,4.0,4.0,80,0.00,CLR,,0.00,WeatherDisplay:10.37,2013-04-10 08:37:00,
2013-04-10 04:42:00,65.1,58.8,30.03,ENE,72,0.0,0.0,80,0.00,CLR,,0.00,WeatherDisplay:10.37,2013-04-10 08:42:00,
2013-04-10 04:47:00,65.0,58.7,30.03,SSW,193,1.1,1.1,80,0.00,CLR,,0.00,WeatherDisplay:10.37,2013-04-10 08:47:00,
2013-04-10 04:52:00,65.0,58.7,30.03,NW,315,2.3,2.3,80,0.00,CLR,,0.00,WeatherDisplay:10.37,2013-04-10 08:52:00,
2013-04-10 04:57:00,64.9,58.9,30.03,SSE,165,2.3,2.3,81,0.00,CLR,,0.00,WeatherDisplay:10.37,2013-04-10 08:57:00,
2013-04-10 05:02:00,64.8,58.8,30.03,ESE,119,2.3,2.3,81,0.00,CLR,,0.00,WeatherDisplay:10.37,2013-04-10 09:02:00,
2013-04-10 05:07:00,64.6,58.6,30.03,SW,225,4.0,4.0,81,0.00,CLR,,0.00,WeatherDisplay:10.37,2013-04-10 09:07:00,
2013-04-10 05:12:00,64.5,58.9,30.03,SSW,203,3.5,3.5,82,0.00,CLR,,0.00,WeatherDisplay:10.37,2013-04-10 09:12:00,
2013-04-10 05:17:00,64.5,58.9,30.03,SW,235,3.0,3.0,82,0.00,CLR,,0.00,WeatherDisplay:10.37,2013-04-10 09:17:00,
2013-04-10 05:22:00,64.5,58.9,30.03,SW,215,3.5,3.5,82,0.00,CLR,,0.00,WeatherDisplay:10.37,2013-04-10 09:22:00,
2013-04-10 05:27:00,64.5,58.9,30.03,SSE,148,3.5,3.5,82,0.00,CLR,,0.00,WeatherDisplay:10.37,2013-04-10 09:27:00,
2013-04-10 05:32:00,64.4,58.8,30.03,West,262,1.1,1.1,82,0.00,CLR,,0.00,WeatherDisplay:10.37,2013-04-10 09:32:00,
2013-04-10 05:37:00,64.3,59.0,30.03,SSE,152,5.8,5.8,83,0.00,CLR,,0.00,WeatherDisplay:10.37,2013-04-10 09:37:00,
2013-04-10 05:42:00,64.3,59.0,30.04,SW,224,4.6,4.6,83,0.00,CLR,,0.00,WeatherDisplay:10.37,2013-04-10 09:42:00,
2013-04-10 05:47:00,64.3,59.0,30.04,WSW,243,6.9,6.9,83,0.00,CLR,,0.00,WeatherDisplay:10.37,2013-04-10 09:47:00,
2013-04-10 05:52:00,64.3,59.0,30.04,South,188,8.1,8.1,83,0.00,CLR,,0.00,WeatherDisplay:10.37,2013-04-10 09:52:00,
2013-04-10 05:57:00,64.3,59.0,30.04,SSW,194,3.5,3.5,83,0.00,CLR,,0.00,WeatherDisplay:10.37,2013-04-10 09:57:00,
2013-04-10 06:02:00,64.3,59.4,30.04,WSW,243,3.5,3.5,84,0.00,CLR,,0.00,WeatherDisplay:10.37,2013-04-10 10:02:00,
2013-04-10 06:07:00,64.3,59.4,30.05,SW,222,4.6,4.6,84,0.00,CLR,,0.00,WeatherDisplay:10.37,2013-04-10 10:07:00,
2013-04-10 06:12:00,64.2,59.3,30.05,NE,44,2.3,2.3,84,0.00,CLR,,0.00,WeatherDisplay:10.37,2013-04-10 10:12:00,
2013-04-10 06:17:00,64.2,59.3,30.05,SW,214,3.5,3.5,84,0.00,CLR,,0.00,WeatherDisplay:10.37,2013-04-10 10:17:00,
2013-04-10 06:22:00,64.2,59.3,30.05,SW,224,2.3,2.3,84,0.00,CLR,,0.00,WeatherDisplay:10.37,2013-04-10 10:22:00,
2013-04-10 06:27:00,64.2,59.3,30.05,ESE,103,1.1,1.1,84,0.00,CLR,,0.00,WeatherDisplay:10.37,2013-04-10 10:27:00,
2013-04-10 06:32:00,64.2,59.3,30.05,SSE,150,3.0,3.0,84,0.00,CLR,,0.00,WeatherDisplay:10.37,2013-04-10 10:32:00,
2013-04-10 06:37:00,64.1,59.2,30.05,SW,232,0.0,0.0,84,0.00,CLR,,0.00,WeatherDisplay:10.37,2013-04-10 10:37:00,
2013-04-10 06:42:00,64.0,59.4,30.05,SE,125,2.3,2.3,85,0.00,CLR,,0.00,WeatherDisplay:10.37,2013-04-10 10:42:00,
2013-04-10 06:47:00,63.9,59.3,30.05,SW,232,0.0,0.0,85,0.00,CLR,,0.00,WeatherDisplay:10.37,2013-04-10 10:47:00,
2013-04-10 06:52:00,63.9,59.3,30.05,NNE,12,2.3,2.3,85,0.00,CLR,,0.00,WeatherDisplay:10.37,2013-04-10 10:52:00,
2013-04-10 06:57:00,63.9,59.3,30.05,West,262,1.1,1.1,85,0.00,CLR,,0.00,WeatherDisplay:10.37,2013-04-10 10:57:00,
2013-04-10 07:02:00,63.9,59.3,30.05,SSE,165,3.5,3.5,85,0.00,CLR,,0.00,WeatherDisplay:10.37,2013-04-10 11:02:00,
2013-04-10 07:07:00,63.9,59.3,30.05,SSW,211,2.3,2.3,85,0.00,CLR,,0.00,WeatherDisplay:10.37,2013-04-10 11:07:00,
2013-04-10 07:12:00,63.8,59.5,30.05,West,270,3.0,3.0,86,0.00,CLR,,0.00,WeatherDisplay:10.37,2013-04-10 11:12:00,
2013-04-10 07:17:00,63.9,59.6,30.05,SW,214,1.1,1.1,86,0.00,CLR,,0.00,WeatherDisplay:10.37,2013-04-10 11:17:00,
2013-04-10 07:22:00,63.8,59.5,30.05,East,92,1.1,1.1,86,0.00,CLR,,0.00,WeatherDisplay:10.37,2013-04-10 11:22:00,
2013-04-10 07:27:00,63.8,59.5,30.05,ENE,65,1.0,0.0,86,0.00,CLR,,0.00,WeatherDisplay:10.37,2013-04-10 11:27:00,
2013-04-10 07:32:00,63.9,59.6,30.05,SW,222,1.1,1.1,86,0.00,CLR,,0.00,WeatherDisplay:10.37,2013-04-10 11:32:00,
2013-04-10 07:37:00,64.2,59.9,30.05,WNW,288,2.3,2.3,86,0.00,CLR,,0.00,WeatherDisplay:10.37,2013-04-10 11:37:00,
2013-04-10 07:42:00,64.3,59.7,30.05,SSW,204,3.5,3.5,85,0.00,CLR,,0.00,WeatherDisplay:10.37,2013-04-10 11:42:00,
2013-04-10 07:47:00,64.4,59.8,30.05,NW,318,2.0,2.0,85,0.00,CLR,,0.00,WeatherDisplay:10.37,2013-04-10 11:47:00,
2013-04-10 07:52:00,64.6,60.0,30.06,WSW,250,3.5,3.5,85,0.00,CLR,,0.00,WeatherDisplay:10.37,2013-04-10 11:52:00,
2013-04-10 07:57:00,64.8,60.2,30.06,WSW,242,5.0,5.0,85,0.00,CLR,,0.00,WeatherDisplay:10.37,2013-04-10 11:57:00,
2013-04-10 08:02:00,65.1,60.1,30.06,SW,236,3.5,3.5,84,0.00,CLR,,0.00,WeatherDisplay:10.37,2013-04-10 12:02:00,
2013-04-10 08:07:00,65.6,60.6,30.06,SSW,193,2.3,2.3,84,0.00,CLR,,0.00,WeatherDisplay:10.37,2013-04-10 12:07:00,
2013-04-10 08:12:00,66.2,60.5,30.06,West,278,3.5,3.5,82,0.00,CLR,,0.00,WeatherDisplay:10.37,2013-04-10 12:12:00,
2013-04-10 08:17:00,66.6,60.9,30.06,West,273,3.5,3.5,82,0.00,CLR,,0.00,WeatherDisplay:10.37,2013-04-10 12:17:00,
2013-04-10 08:22:00,67.0,61.0,30.06,West,259,8.1,8.1,81,0.00,CLR,,0.00,WeatherDisplay:10.37,2013-04-10 12:22:00,
2013-04-10 08:27:00,67.2,60.8,30.06,WNW,287,4.6,4.6,80,0.00,CLR,,0.00,WeatherDisplay:10.37,2013-04-10 12:27:00,
2013-04-10 08:32:00,67.3,60.9,30.06,SW,226,4.6,4.6,80,0.00,CLR,,0.00,WeatherDisplay:10.37,2013-04-10 12:32:00,
2013-04-10 08:37:00,67.6,61.2,30.06,SE,131,2.3,2.3,80,0.00,CLR,,0.00,WeatherDisplay:10.37,2013-04-10 12:37:00,
2013-04-10 08:42:00,68.1,61.3,30.06,NW,315,5.8,5.8,79,0.00,CLR,,0.00,WeatherDisplay:10.37,2013-04-10 12:42:00,
2013-04-10 08:47:00,68.6,61.5,30.06,South,186,5.8,5.8,78,0.00,CLR,,0.00,WeatherDisplay:10.37,2013-04-10 12:47:00,
2013-04-10 08:52:00,68.7,61.6,30.06,WSW,245,4.6,4.6,78,0.00,CLR,,0.00,WeatherDisplay:10.37,2013-04-10 12:52:00,
2013-04-10 08:57:00,68.9,61.8,30.06,NNE,16,1.1,1.1,78,0.00,CLR,,0.00,WeatherDisplay:10.37,2013-04-10 12:57:00,
2013-04-10 09:02:00,69.4,61.5,30.06,SW,232,4.6,4.6,76,0.00,CLR,,0.00,WeatherDisplay:10.37,2013-04-10 13:02:00,
2013-04-10 09:07:00,69.6,61.7,30.06,West,267,5.8,5.8,76,0.00,CLR,,0.00,WeatherDisplay:10.37,2013-04-10 13:07:00,
2013-04-10 09:12:00,69.9,61.6,30.06,SW,218,6.0,6.0,75,0.00,CLR,,0.00,WeatherDisplay:10.37,2013-04-10 13:12:00,
2013-04-10 09:17:00,70.2,61.9,30.06,SSW,197,3.5,3.5,75,0.00,CLR,,0.00,WeatherDisplay:10.37,2013-04-10 13:17:00,
2013-04-10 09:22:00,70.5,61.4,30.07,West,270,8.1,8.1,73,0.00,CLR,,0.00,WeatherDisplay:10.37,2013-04-10 13:22:00,
2013-04-10 09:27:00,70.6,61.5,30.06,WNW,295,3.5,3.5,73,0.00,CLR,,0.00,WeatherDisplay:10.37,2013-04-10 13:27:00,
2013-04-10 09:32:00,70.8,61.7,30.06,WSW,243,3.5,3.5,73,0.00,CLR,,0.00,WeatherDisplay:10.37,2013-04-10 13:32:00,
2013-04-10 09:37:00,71.3,61.8,30.06,North,4,4.6,4.6,72,0.00,CLR,,0.00,WeatherDisplay:10.37,2013-04-10 13:37:00,
2013-04-10 09:42:00,72.0,62.5,30.07,NW,315,1.1,1.1,72,0.00,CLR,,0.00,WeatherDisplay:10.37,2013-04-10 13:42:00,
2013-04-10 09:47:00,72.0,61.7,30.06,NW,314,3.5,3.5,70,0.00,CLR,,0.00,WeatherDisplay:10.37,2013-04-10 13:47:00,
2013-04-10 09:52:00,72.2,61.9,30.06,SW,226,4.6,4.6,70,0.00,CLR,,0.00,WeatherDisplay:10.37,2013-04-10 13:52:00,
2013-04-10 09:57:00,72.6,61.8,30.06,SW,224,6.9,6.9,69,0.00,CLR,,0.00,WeatherDisplay:10.37,2013-04-10 13:57:00,
2013-04-10 10:02:00,73.0,62.2,30.06,WSW,240,4.6,4.6,69,0.00,CLR,,0.00,WeatherDisplay:10.37,2013-04-10 14:02:00,
2013-04-10 10:07:00,73.5,62.3,30.06,North,11,4.0,4.0,68,0.00,CLR,,0.00,WeatherDisplay:10.37,2013-04-10 14:07:00,
2013-04-10 10:12:00,74.1,62.4,30.06,West,259,10.4,10.4,67,0.00,CLR,,0.00,WeatherDisplay:10.37,2013-04-10 14:12:00,
2013-04-10 10:17:00,74.3,62.2,30.06,WSW,248,5.8,5.8,66,0.00,CLR,,0.00,WeatherDisplay:10.37,2013-04-10 14:17:00,
2013-04-10 10:22:00,74.8,62.2,30.06,SSW,204,4.6,4.6,65,0.00,CLR,,0.00,WeatherDisplay:10.37,2013-04-10 14:22:00,
2013-04-10 10:27:00,74.9,62.8,30.06,SSE,165,2.3,0.0,66,0.00,CLR,,0.00,WeatherDisplay:10.37,2013-04-10 14:27:00,
2013-04-10 10:32:00,75.7,62.7,30.06,East,99,4.6,4.6,64,0.00,CLR,,0.00,WeatherDisplay:10.37,2013-04-10 14:32:00,
2013-04-10 10:37:00,75.9,62.4,30.06,NW,317,4.6,4.6,63,0.00,CLR,,0.00,WeatherDisplay:10.37,2013-04-10 14:37:00,
2013-04-10 10:42:00,76.2,62.7,30.05,WNW,300,5.8,5.8,63,0.00,CLR,,0.00,WeatherDisplay:10.37,2013-04-10 14:42:00,
2013-04-10 10:47:00,76.5,62.0,30.06,SW,231,8.1,8.1,61,0.00,CLR,,0.00,WeatherDisplay:10.37,2013-04-10 14:47:00,
2013-04-10 10:52:00,76.3,62.3,30.06,East,85,2.3,2.3,62,0.00,CLR,,0.00,WeatherDisplay:10.37,2013-04-10 14:52:00,
2013-04-10 10:57:00,77.2,62.7,30.06,South,182,3.5,3.5,61,0.00,CLR,,0.00,WeatherDisplay:10.37,2013-04-10 14:57:00,
2013-04-10 11:02:00,77.2,62.2,30.06,SSE,160,5.8,5.8,60,0.00,CLR,,0.00,WeatherDisplay:10.37,2013-04-10 15:02:00,
2013-04-10 11:07:00,77.4,61.9,30.06,WSW,238,9.2,9.2,59,0.00,CLR,,0.00,WeatherDisplay:10.37,2013-04-10 15:07:00,
2013-04-10 11:12:00,77.6,62.1,30.06,SSW,193,2.3,2.3,59,0.00,CLR,,0.00,WeatherDisplay:10.37,2013-04-10 15:12:00,
2013-04-10 11:17:00,77.8,61.8,30.06,NNE,12,6.9,6.9,58,0.00,CLR,,0.00,WeatherDisplay:10.37,2013-04-10 15:17:00,
2013-04-10 11:22:00,77.8,61.3,30.05,SW,217,11.5,11.5,57,0.00,CLR,,0.00,WeatherDisplay:10.37,2013-04-10 15:22:00,
2013-04-10 11:27:00,78.1,62.1,30.05,West,270,6.9,6.9,58,0.00,CLR,,0.00,WeatherDisplay:10.37,2013-04-10 15:27:00,
2013-04-10 11:32:00,78.4,62.4,30.05,SW,233,5.8,5.8,58,0.00,CLR,,0.00,WeatherDisplay:10.37,2013-04-10 15:32:00,
2013-04-10 11:37:00,79.5,62.9,30.05,West,271,3.0,3.0,57,0.00,CLR,,0.00,WeatherDisplay:10.37,2013-04-10 15:37:00,
2013-04-10 11:42:00,79.7,62.6,30.05,WSW,256,2.3,2.3,56,0.00,CLR,,0.00,WeatherDisplay:10.37,2013-04-10 15:42:00,
2013-04-10 11:47:00,80.0,61.9,30.05,WNW,284,3.5,3.5,54,0.00,CLR,,0.00,WeatherDisplay:10.37,2013-04-10 15:47:00,
2013-04-10 11:52:00,80.5,61.8,30.05,SSW,197,5.8,5.8,53,0.00,CLR,,0.00,WeatherDisplay:10.37,2013-04-10 15:52:00,
2013-04-10 11:57:00,80.5,62.8,30.05,WSW,255,3.5,3.5,55,0.00,CLR,,0.00,WeatherDisplay:10.37,2013-04-10 15:57:00,
2013-04-10 12:02:00,81.4,62.1,30.05,WSW,255,5.8,5.8,52,0.00,CLR,,0.00,WeatherDisplay:10.37,2013-04-10 16:02:00,
2013-04-10 12:07:00,81.3,62.0,30.04,East,98,3.5,3.5,52,0.00,CLR,,0.00,WeatherDisplay:10.37,2013-04-10 16:07:00,
2013-04-10 12:12:00,81.8,63.0,30.04,NNW,347,3.5,3.5,53,0.00,CLR,,0.00,WeatherDisplay:10.37,2013-04-10 16:12:00,
2013-04-10 12:17:00,82.6,62.6,30.04,West,277,2.3,2.3,51,0.00,CLR,,0.00,WeatherDisplay:10.37,2013-04-10 16:17:00,
2013-04-10 12:22:00,83.0,61.9,30.04,South,170,11.5,11.5,49,0.00,CLR,,0.00,WeatherDisplay:10.37,2013-04-10 16:22:00,
2013-04-10 12:27:00,83.1,62.0,30.04,West,273,5.0,5.0,49,0.00,CLR,,0.00,WeatherDisplay:10.37,2013-04-10 16:27:00,
2013-04-10 12:32:00,83.6,61.8,30.03,NW,316,5.8,5.8,48,0.00,CLR,,0.00,WeatherDisplay:10.37,2013-04-10 16:32:00,
2013-04-10 12:37:00,83.7,61.9,30.03,WSW,243,3.5,3.5,48,0.00,CLR,,0.00,WeatherDisplay:10.37,2013-04-10 16:37:00,
2013-04-10 12:42:00,83.4,61.7,30.03,SW,235,5.8,5.8,48,0.00,CLR,,0.00,WeatherDisplay:10.37,2013-04-10 16:42:00,
2013-04-10 12:47:00,83.1,60.2,30.02,WSW,250,8.1,8.1,46,0.00,CLR,,0.00,WeatherDisplay:10.37,2013-04-10 16:47:00,
2013-04-10 12:52:00,83.3,61.0,30.02,West,278,5.8,5.8,47,0.00,CLR,,0.00,WeatherDisplay:10.37,2013-04-10 16:52:00,
2013-04-10 12:57:00,83.3,61.0,30.02,NE,40,11.5,11.5,47,0.00,CLR,,0.00,WeatherDisplay:10.37,2013-04-10 16:57:00,
2013-04-10 13:02:00,83.6,61.2,30.02,ESE,110,2.3,4.2,47,0.00,CLR,,0.00,WeatherDisplay:10.37,2013-04-10 17:02:00,
2013-04-10 13:07:00,84.3,61.9,30.02,NE,53,4.6,4.6,47,0.00,CLR,,0.00,WeatherDisplay:10.37,2013-04-10 17:07:00,
2013-04-10 13:12:00,84.4,60.7,30.02,SW,228,5.8,5.8,45,0.00,CLR,,0.00,WeatherDisplay:10.37,2013-04-10 17:12:00,
2013-04-10 13:17:00,84.4,60.7,30.02,WSW,245,5.0,5.0,45,0.00,CLR,,0.00,WeatherDisplay:10.37,2013-04-10 17:17:00,
2013-04-10 13:22:00,84.9,61.8,30.02,West,274,8.1,8.1,46,0.00,CLR,,0.00,WeatherDisplay:10.37,2013-04-10 17:22:00,
2013-04-10 13:27:00,84.6,60.9,30.02,WNW,294,4.6,4.6,45,0.00,CLR,,0.00,WeatherDisplay:10.37,2013-04-10 17:27:00,
2013-04-10 13:32:00,85.4,61.0,30.02,South,191,2.3,2.3,44,0.00,CLR,,0.00,WeatherDisplay:10.37,2013-04-10 17:32:00,
2013-04-10 13:37:00,85.8,60.7,30.01,East,92,6.9,6.9,43,0.00,CLR,,0.00,WeatherDisplay:10.37,2013-04-10 17:37:00,
2013-04-10 13:42:00,86.4,61.9,30.02,SW,232,3.5,3.5,44,0.00,CLR,,0.00,WeatherDisplay:10.37,2013-04-10 17:42:00,
2013-04-10 13:47:00,86.3,61.2,30.01,WNW,300,3.5,0.0,43,0.00,CLR,,0.00,WeatherDisplay:10.37,2013-04-10 17:47:00,
2013-04-10 13:53:00,86.1,61.0,30.01,WNW,287,4.6,4.6,43,0.00,CLR,,0.00,WeatherDisplay:10.37,2013-04-10 17:53:00,
2013-04-10 13:58:00,85.8,60.7,30.01,WSW,245,8.1,8.1,43,0.00,CLR,,0.00,WeatherDisplay:10.37,2013-04-10 17:58:00,
2013-04-10 14:03:00,86.3,59.8,30.00,NW,321,11.5,11.5,41,0.00,CLR,,0.00,WeatherDisplay:10.37,2013-04-10 18:03:00,
2013-04-10 14:08:00,85.6,59.9,30.00,West,269,6.0,6.0,42,0.00,CLR,,0.00,WeatherDisplay:10.37,2013-04-10 18:08:00,
2013-04-10 14:13:00,85.6,59.9,30.00,SW,228,5.8,5.8,42,0.00,CLR,,0.00,WeatherDisplay:10.37,2013-04-10 18:13:00,
2013-04-10 14:18:00,86.2,60.4,30.00,SSE,148,3.5,3.5,42,0.00,CLR,,0.00,WeatherDisplay:10.37,2013-04-10 18:18:00,
2013-04-10 14:23:00,87.1,61.9,30.00,NNW,328,2.3,2.3,43,0.00,CLR,,0.00,WeatherDisplay:10.37,2013-04-10 18:23:00,
2013-04-10 14:28:00,86.9,61.0,29.99,WSW,245,8.1,8.1,42,0.00,CLR,,0.00,WeatherDisplay:10.37,2013-04-10 18:28:00,
2013-04-10 14:33:00,86.3,60.5,29.99,SSE,160,3.5,3.5,42,0.00,CLR,,0.00,WeatherDisplay:10.37,2013-04-10 18:33:00,
2013-04-10 14:38:00,86.8,61.0,29.99,WSW,243,6.9,6.9,42,0.00,CLR,,0.00,WeatherDisplay:10.37,2013-04-10 18:38:00,
2013-04-10 14:43:00,86.5,60.7,29.99,NW,306,4.6,4.6,42,0.00,CLR,,0.00,WeatherDisplay:10.37,2013-04-10 18:43:00,
2013-04-10 14:48:00,87.1,59.1,29.98,East,89,11.5,11.5,39,0.00,CLR,,0.00,WeatherDisplay:10.37,2013-04-10 18:48:00,
2013-04-10 14:53:00,86.9,59.0,29.98,South,169,4.6,4.6,39,0.00,CLR,,0.00,WeatherDisplay:10.37,2013-04-10 18:53:00,
2013-04-10 14:58:00,87.0,59.8,29.98,WNW,290,8.1,8.1,40,0.00,CLR,,0.00,WeatherDisplay:10.37,2013-04-10 18:58:00,
2013-04-10 15:03:00,87.0,60.5,29.98,West,266,3.5,3.5,41,0.00,CLR,,0.00,WeatherDisplay:10.37,2013-04-10 19:03:00,
2013-04-10 15:08:00,87.6,61.0,29.97,ESE,112,6.9,6.9,41,0.00,CLR,,0.00,WeatherDisplay:10.37,2013-04-10 19:08:00,
2013-04-10 15:13:00,87.8,58.3,29.97,WSW,257,5.8,5.8,37,0.00,CLR,,0.00,WeatherDisplay:10.37,2013-04-10 19:13:00,
2013-04-10 15:18:00,87.5,58.8,29.97,WSW,241,15.0,15.0,38,0.00,CLR,,0.00,WeatherDisplay:10.37,2013-04-10 19:18:00,
2013-04-10 15:23:00,87.4,59.4,29.96,West,276,5.8,5.8,39,0.00,CLR,,0.00,WeatherDisplay:10.37,2013-04-10 19:23:00,
2013-04-10 15:28:00,87.4,59.4,29.96,East,96,9.0,9.0,39,0.00,CLR,,0.00,WeatherDisplay:10.37,2013-04-10 19:28:00,
2013-04-10 15:33:00,88.1,58.6,29.96,SSW,205,9.2,9.2,37,0.00,CLR,,0.00,WeatherDisplay:10.37,2013-04-10 19:33:00,
2013-04-10 15:38:00,87.9,59.1,29.95,North,351,5.8,5.8,38,0.00,CLR,,0.00,WeatherDisplay:10.37,2013-04-10 19:38:00,
2013-04-10 15:43:00,88.2,58.6,29.95,SSW,208,3.5,3.5,37,0.00,CLR,,0.00,WeatherDisplay:10.37,2013-04-10 19:43:00,
2013-04-10 15:48:00,88.5,58.9,29.95,SW,216,10.4,10.4,37,0.00,CLR,,0.00,WeatherDisplay:10.37,2013-04-10 19:48:00,
2013-04-10 15:53:00,87.9,59.1,29.95,East,91,6.9,6.9,38,0.00,CLR,,0.00,WeatherDisplay:10.37,2013-04-10 19:53:00,
2013-04-10 15:58:00,88.0,59.9,29.94,South,181,4.0,4.0,39,0.00,CLR,,0.00,WeatherDisplay:10.37,2013-04-10 19:58:00,
2013-04-10 16:03:00,88.3,59.5,29.94,ESE,120,4.0,4.0,38,0.00,CLR,,0.00,WeatherDisplay:10.37,2013-04-10 20:03:00,
2013-04-10 16:08:00,88.6,59.7,29.94,SSE,155,4.6,4.6,38,0.00,CLR,,0.00,WeatherDisplay:10.37,2013-04-10 20:08:00,
2013-04-10 16:13:00,88.6,59.0,29.94,SW,226,8.0,8.0,37,0.00,CLR,,0.00,WeatherDisplay:10.37,2013-04-10 20:13:00,
2013-04-10 16:18:00,89.1,59.4,29.94,WNW,290,3.5,3.5,37,0.00,CLR,,0.00,WeatherDisplay:10.37,2013-04-10 20:18:00,
2013-04-10 16:23:00,89.3,58.1,29.94,NW,318,8.1,8.1,35,0.00,CLR,,0.00,WeatherDisplay:10.37,2013-04-10 20:23:00,
2013-04-10 16:28:00,88.8,59.2,29.93,West,278,1.1,1.1,37,0.00,CLR,,0.00,WeatherDisplay:10.37,2013-04-10 20:28:00,
2013-04-10 16:33:00,88.9,58.5,29.93,West,269,8.1,8.1,36,0.00,CLR,,0.00,WeatherDisplay:10.37,2013-04-10 20:33:00,
2013-04-10 16:38:00,88.8,59.9,29.93,ENE,77,9.2,9.2,38,0.00,CLR,,0.00,WeatherDisplay:10.37,2013-04-10 20:38:00,
2013-04-10 16:43:00,89.0,59.3,29.93,East,90,3.5,3.5,37,0.00,CLR,,0.00,WeatherDisplay:10.37,2013-04-10 20:43:00,
2013-04-10 16:48:00,88.6,59.0,29.93,East,86,6.0,6.0,37,0.00,CLR,,0.00,WeatherDisplay:10.37,2013-04-10 20:48:00,
2013-04-10 16:53:00,88.8,59.2,29.93,West,278,11.5,11.5,37,0.00,CLR,,0.00,WeatherDisplay:10.37,2013-04-10 20:53:00,
2013-04-10 16:58:00,88.1,58.6,29.93,SSE,150,6.9,6.9,37,0.00,CLR,,0.00,WeatherDisplay:10.37,2013-04-10 20:58:00,
2013-04-10 17:03:00,88.4,59.6,29.93,West,276,3.5,3.5,38,0.00,CLR,,0.00,WeatherDisplay:10.37,2013-04-10 21:03:00,
2013-04-10 17:08:00,88.2,58.6,29.93,WSW,250,11.5,11.5,37,0.00,CLR,,0.00,WeatherDisplay:10.37,2013-04-10 21:08:00,
2013-04-10 17:13:00,87.9,59.1,29.93,ENE,63,3.0,3.0,38,0.00,CLR,,0.00,WeatherDisplay:10.37,2013-04-10 21:13:00,
2013-04-10 17:18:00,87.9,59.1,29.93,NNW,328,8.1,8.1,38,0.00,CLR,,0.00,WeatherDisplay:10.37,2013-04-10 21:18:00,
2013-04-10 17:23:00,87.9,59.1,29.92,WSW,246,4.0,4.0,38,0.00,CLR,,0.00,WeatherDisplay:10.37,2013-04-10 21:23:00,
2013-04-10 17:28:00,87.9,59.1,29.92,WNW,284,7.0,7.0,38,0.00,CLR,,0.00,WeatherDisplay:10.37,2013-04-10 21:28:00,
2013-04-10 17:33:00,87.7,59.7,29.92,SW,229,3.0,3.0,39,0.00,CLR,,0.00,WeatherDisplay:10.37,2013-04-10 21:33:00,
2013-04-10 17:38:00,87.9,59.8,29.92,WSW,239,3.5,3.5,39,0.00,CLR,,0.00,WeatherDisplay:10.37,2013-04-10 21:38:00,
2013-04-10 17:43:00,88.0,59.9,29.92,SW,224,2.0,2.0,39,0.00,CLR,,0.00,WeatherDisplay:10.37,2013-04-10 21:43:00,
2013-04-10 17:48:00,87.9,59.1,29.92,WSW,252,4.6,4.6,38,0.00,CLR,,0.00,WeatherDisplay:10.37,2013-04-10 21:48:00,
2013-04-10 17:53:00,87.7,58.9,29.92,NNW,345,5.8,5.8,38,0.00,CLR,,0.00,WeatherDisplay:10.37,2013-04-10 21:53:00,
2013-04-10 17:58:00,87.5,58.8,29.92,SSW,193,3.5,3.5,38,0.00,CLR,,0.00,WeatherDisplay:10.37,2013-04-10 21:58:00,
2013-04-10 18:03:00,87.3,58.6,29.92,West,270,4.6,4.6,38,0.00,CLR,,0.00,WeatherDisplay:10.37,2013-04-10 22:03:00,
2013-04-10 18:08:00,87.4,59.4,29.92,SW,229,2.3,2.3,39,0.00,CLR,,0.00,WeatherDisplay:10.37,2013-04-10 22:08:00,
2013-04-10 18:13:00,87.2,59.2,29.92,WSW,252,2.3,2.3,39,0.00,CLR,,0.00,WeatherDisplay:10.37,2013-04-10 22:13:00,
2013-04-10 18:18:00,87.2,59.2,29.92,NW,311,2.3,2.3,39,0.00,CLR,,0.00,WeatherDisplay:10.37,2013-04-10 22:18:00,
2013-04-10 18:23:00,87.3,58.6,29.92,West,267,3.0,3.0,38,0.00,CLR,,0.00,WeatherDisplay:10.37,2013-04-10 22:23:00,
2013-04-10 18:28:00,86.6,58.7,29.92,West,271,5.0,5.0,39,0.00,CLR,,0.00,WeatherDisplay:10.37,2013-04-10 22:28:00,
2013-04-10 18:33:00,86.2,59.0,29.92,SSW,200,5.8,5.8,40,0.00,CLR,,0.00,WeatherDisplay:10.37,2013-04-10 22:33:00,
2013-04-10 18:38:00,86.2,58.3,29.91,East,79,1.1,1.1,39,0.00,CLR,,0.00,WeatherDisplay:10.37,2013-04-10 22:38:00,
2013-04-10 18:43:00,86.3,58.4,29.91,SW,231,5.8,5.8,39,0.00,CLR,,0.00,WeatherDisplay:10.37,2013-04-10 22:43:00,
2013-04-10 18:48:00,85.9,58.8,29.91,SE,125,3.5,3.5,40,0.00,CLR,,0.00,WeatherDisplay:10.37,2013-04-10 22:48:00,
2013-04-10 18:53:00,85.7,58.6,29.91,SSW,203,1.1,1.1,40,0.00,CLR,,0.00,WeatherDisplay:10.37,2013-04-10 22:53:00,
2013-04-10 18:58:00,85.2,58.2,29.91,West,266,1.1,1.1,40,0.00,CLR,,0.00,WeatherDisplay:10.37,2013-04-10 22:58:00,
2013-04-10 19:03:00,84.6,58.3,29.91,SSW,209,2.3,2.3,41,0.00,CLR,,0.00,WeatherDisplay:10.37,2013-04-10 23:03:00,
2013-04-10 19:08:00,84.1,58.5,29.91,WSW,253,3.5,3.5,42,0.00,CLR,,0.00,WeatherDisplay:10.37,2013-04-10 23:08:00,
2013-04-10 19:13:00,83.7,58.2,29.91,South,189,1.1,1.1,42,0.00,CLR,,0.00,WeatherDisplay:10.37,2013-04-10 23:13:00,
2013-04-10 19:18:00,83.3,58.5,29.91,SSW,197,2.3,2.3,43,0.00,CLR,,0.00,WeatherDisplay:10.37,2013-04-10 23:18:00,
2013-04-10 19:23:00,82.9,59.4,29.91,West,281,2.3,2.3,45,0.00,CLR,,0.00,WeatherDisplay:10.37,2013-04-10 23:23:00,
2013-04-10 19:28:00,82.6,59.7,29.91,SSW,207,1.1,1.1,46,0.00,CLR,,0.00,WeatherDisplay:10.37,2013-04-10 23:28:00,
2013-04-10 19:33:00,82.2,60.0,29.91,SW,233,2.0,2.0,47,0.00,CLR,,0.00,WeatherDisplay:10.37,2013-04-10 23:33:00,
2013-04-10 19:38:00,81.8,60.2,29.91,SW,233,3.5,3.5,48,0.00,CLR,,0.00,WeatherDisplay:10.37,2013-04-10 23:38:00,
2013-04-10 19:43:00,81.6,60.6,29.91,East,96,4.6,4.6,49,0.00,CLR,,0.00,WeatherDisplay:10.37,2013-04-10 23:43:00,
2013-04-10 19:48:00,81.3,60.3,29.91,SSE,159,1.1,1.1,49,0.00,CLR,,0.00,WeatherDisplay:10.37,2013-04-10 23:48:00,
2013-04-10 19:53:00,80.9,59.9,29.91,SSW,205,1.1,0.0,49,0.00,CLR,,0.00,WeatherDisplay:10.37,2013-04-10 23:53:00,
2013-04-10 19:58:00,80.6,60.2,29.91,SW,221,1.0,0.0,50,0.00,CLR,,0.00,WeatherDisplay:10.37,2013-04-10 23:58:00,
2013-04-10 20:03:00,80.3,60.5,29.91,WSW,239,4.6,4.6,51,0.00,CLR,,0.00,WeatherDisplay:10.37,2013-04-11 00:03:00,
2013-04-10 20:08:00,80.0,60.2,29.91,SSE,167,3.5,3.5,51,0.00,CLR,,0.00,WeatherDisplay:10.37,2013-04-11 00:08:00,
2013-04-10 20:13:00,79.7,60.5,29.91,ESE,114,0.0,0.0,52,0.00,CLR,,0.00,WeatherDisplay:10.37,2013-04-11 00:13:00,
2013-04-10 20:18:00,79.6,60.4,29.90,SW,229,3.5,3.5,52,0.00,CLR,,0.00,WeatherDisplay:10.37,2013-04-11 00:18:00,
2013-04-10 20:23:00,79.4,60.2,29.91,SE,143,3.5,3.5,52,0.00,CLR,,0.00,WeatherDisplay:10.37,2013-04-11 00:23:00,
2013-04-10 20:28:00,79.3,60.1,29.91,WSW,252,3.5,3.5,52,0.00,CLR,,0.00,WeatherDisplay:10.37,2013-04-11 00:28:00,
2013-04-10 20:33:00,79.1,60.0,29.91,East,96,1.0,1.0,52,0.00,CLR,,0.00,WeatherDisplay:10.37,2013-04-11 00:33:00,
2013-04-10 20:38:00,78.8,60.2,29.91,SE,135,1.1,0.0,53,0.00,CLR,,0.00,WeatherDisplay:10.37,2013-04-11 00:38:00,
2013-04-10 20:43:00,78.7,60.1,29.91,South,190,2.3,2.3,53,0.00,CLR,,0.00,WeatherDisplay:10.37,2013-04-11 00:43:00,
2013-04-10 20:48:00,78.5,59.9,29.92,SSW,201,1.1,0.0,53,0.00,CLR,,0.00,WeatherDisplay:10.37,2013-04-11 00:48:00,
2013-04-10 20:53:00,78.2,60.2,29.92,SW,229,5.0,5.0,54,0.00,CLR,,0.00,WeatherDisplay:10.37,2013-04-11 00:53:00,
2013-04-10 20:58:00,78.1,60.1,29.92,SE,145,1.1,1.1,54,0.00,CLR,,0.00,WeatherDisplay:10.37,2013-04-11 00:58:00,
2013-04-10 21:03:00,77.9,60.4,29.92,WNW,286,2.3,2.3,55,0.00,CLR,,0.00,WeatherDisplay:10.37,2013-04-11 01:03:00,
2013-04-10 21:08:00,77.8,60.3,29.92,SW,221,1.1,1.1,55,0.00,CLR,,0.00,WeatherDisplay:10.37,2013-04-11 01:08:00,
2013-04-10 21:13:00,77.6,60.2,29.92,SW,226,1.1,0.0,55,0.00,CLR,,0.00,WeatherDisplay:10.37,2013-04-11 01:13:00,
2013-04-10 21:18:00,77.3,60.4,29.92,SW,228,2.3,0.0,56,0.00,CLR,,0.00,WeatherDisplay:10.37,2013-04-11 01:18:00,
2013-04-10 21:23:00,77.0,60.1,29.92,SW,224,0.0,0.0,56,0.00,CLR,,0.00,WeatherDisplay:10.37,2013-04-11 01:23:00,
2013-04-10 21:28:00,76.8,60.4,29.93,SSW,197,3.5,3.5,57,0.00,CLR,,0.00,WeatherDisplay:10.37,2013-04-11 01:28:00,
2013-04-10 21:33:00,76.7,60.3,29.92,SSW,201,0.0,0.0,57,0.00,CLR,,0.00,WeatherDisplay:10.37,2013-04-11 01:33:00,
2013-04-10 21:38:00,76.5,60.6,29.93,SSE,162,3.5,3.5,58,0.00,CLR,,0.00,WeatherDisplay:10.37,2013-04-11 01:38:00,
2013-04-10 21:43:00,76.4,60.5,29.93,WSW,240,4.6,4.6,58,0.00,CLR,,0.00,WeatherDisplay:10.37,2013-04-11 01:43:00,
2013-04-10 21:48:00,76.2,60.3,29.93,SW,221,3.5,3.5,58,0.00,CLR,,0.00,WeatherDisplay:10.37,2013-04-11 01:48:00,
2013-04-10 21:53:00,76.0,60.6,29.93,SSW,198,3.5,3.5,59,0.00,CLR,,0.00,WeatherDisplay:10.37,2013-04-11 01:53:00,
2013-04-10 21:58:00,75.9,60.5,29.93,NE,50,2.3,0.0,59,0.00,CLR,,0.00,WeatherDisplay:10.37,2013-04-11 01:58:00,
2013-04-10 22:03:00,75.7,60.8,29.93,SSE,148,1.1,0.0,60,0.00,CLR,,0.00,WeatherDisplay:10.37,2013-04-11 02:03:00,
2013-04-10 22:08:00,75.5,60.6,29.93,SW,235,2.3,2.3,60,0.00,CLR,,0.00,WeatherDisplay:10.37,2013-04-11 02:08:00,
2013-04-10 22:13:00,75.4,60.5,29.93,WSW,250,2.3,2.3,60,0.00,CLR,,0.00,WeatherDisplay:10.37,2013-04-11 02:13:00,
2013-04-10 22:18:00,75.2,60.8,29.92,SSW,198,2.3,2.3,61,0.00,CLR,,0.00,WeatherDisplay:10.37,2013-04-11 02:18:00,
2013-04-10 22:23:00,75.2,60.8,29.92,SSE,155,3.5,3.5,61,0.00,CLR,,0.00,WeatherDisplay:10.37,2013-04-11 02:23:00,
2013-04-10 22:28:00,75.1,60.7,29.92,SSW,208,2.0,2.0,61,0.00,CLR,,0.00,WeatherDisplay:10.37,2013-04-11 02:28:00,
2013-04-10 22:33:00,75.0,61.1,29.92,SSE,165,2.3,2.3,62,0.00,CLR,,0.00,WeatherDisplay:10.37,2013-04-11 02:33:00,
2013-04-10 22:38:00,74.9,61.0,29.92,WSW,252,3.5,3.5,62,0.00,CLR,,0.00,WeatherDisplay:10.37,2013-04-11 02:38:00,
2013-04-10 22:43:00,74.8,60.9,29.92,WSW,255,1.1,1.1,62,0.00,CLR,,0.00,WeatherDisplay:10.37,2013-04-11 02:43:00,
2013-04-10 22:48:00,74.6,60.7,29.92,SW,221,3.0,3.0,62,0.00,CLR,,0.00,WeatherDisplay:10.37,2013-04-11 02:48:00,
2013-04-10 22:53:00,74.6,60.7,29.92,SW,225,1.1,1.1,62,0.00,CLR,,0.00,WeatherDisplay:10.37,2013-04-11 02:53:00,
2013-04-10 22:58:00,74.5,61.1,29.92,NNE,12,2.3,2.3,63,0.00,CLR,,0.00,WeatherDisplay:10.37,2013-04-11 02:58:00,
2013-04-10 23:03:00,74.3,60.9,29.92,West,267,3.5,3.5,63,0.00,CLR,,0.00,WeatherDisplay:10.37,2013-04-11 03:03:00,
2013-04-10 23:08:00,74.2,60.8,29.92,SSE,159,0.0,0.0,63,0.00,CLR,,0.00,WeatherDisplay:10.37,2013-04-11 03:08:00,
2013-04-10 23:13:00,74.1,61.1,29.92,SE,134,1.1,1.1,64,0.00,CLR,,0.00,WeatherDisplay:10.37,2013-04-11 03:13:00,
2013-04-10 23:18:00,73.9,61.0,29.92,SW,232,2.0,2.0,64,0.00,CLR,,0.00,WeatherDisplay:10.37,2013-04-11 03:18:00,
2013-04-10 23:23:00,73.8,60.9,29.92,SSW,204,1.1,1.1,64,0.00,CLR,,0.00,WeatherDisplay:10.37,2013-04-11 03:23:00,
2013-04-10 23:28:00,73.8,60.9,29.92,SSW,204,0.0,0.3,64,0.00,CLR,,0.00,WeatherDisplay:10.37,2013-04-11 03:28:00,
2013-04-10 23:33:00,73.2,61.2,29.93,SW,235,2.3,2.3,66,0.00,CLR,,0.00,WeatherDisplay:10.37,2013-04-11 03:33:00,
2013-04-10 23:38:00,73.0,61.0,29.92,WSW,255,1.1,0.0,66,0.00,CLR,,0.00,WeatherDisplay:10.37,2013-04-11 03:38:00,
2013-04-10 23:43:00,72.7,61.1,29.92,South,186,3.5,3.5,67,0.00,CLR,,0.00,WeatherDisplay:10.37,2013-04-11 03:43:00,
2013-04-10 23:48:00,72.5,61.3,29.92,WSW,238,4.6,4.6,68,0.00,CLR,,0.00,WeatherDisplay:10.37,2013-04-11 03:48:00,
2013-04-10 23:53:00,72.3,61.1,29.92,WSW,252,2.0,2.0,68,0.00,CLR,,0.00,WeatherDisplay:10.37,2013-04-11 03:53:00,
2013-04-10 23:58:00,72.0,61.3,29.93,WNW,283,3.5,3.5,69,0.00,CLR,,0.00,WeatherDisplay:10.37,2013-04-11 03:58:00,